Main page
METAR-TAF:

METAR-TAF

Airports :

Santa Maria Airport

Santa Maria, Rio Grande do Sul, Brazil

latitude: 29-43S, longitude: 053-42W, elevation: 85 m

Current weather observation

The report was made 34 minutes ago, at 03:00 UTC
Wind 2 kt from the East/Southeast
Temperature 11°C
Humidity 100%
Pressure 1015 hPa
Visibility 10 km or more
no clouds below 1500 m and no cumulonimbus

METAR: SBSM 260300Z 12002KT CAVOK 11/11 Q1015

Time: 00:34 (03:34 UTC)

Forecast

The report was made 12 hours and 34 minutes ago, at 15:00 UTC
Forecast valid from 25 at 18 UTC to 26 at 06 UTC
Wind 5 kt from the East
Visibility 10 km or more
Scattered clouds at a height of 2000 ft
Becoming
from 25 at 22 UTC to 25 at 24 UTC
Visibility 10 km or more
no clouds below 1500 m and no cumulonimbus
Becoming
from 26 at 03 UTC to 26 at 05 UTC
Visibility: 8000 m

TAF: SBSM 251500Z 2518/2606 08005KT 9999 SCT020 TX22/2518Z TN10/2606Z BECMG 2522/2524 CAVOK BECMG 2603/2605 8000 NSC RMK PDZ

Weather observations and forecasts of more than 4000 airports (METAR and TAF reports).

The available stations are represented by yellow and red dots on the map.

Hover mouse over dot to see the name of the station.

Then click to see weather observations and forecasts.

To change the map : click on the green buttons with a black cross to zoom in, on the green button with a dash to zoom out, or on the green arrows for adjacent maps.


METAR-TAF: